Ana Sayfa
METAR-TAF:

METAR-TAF

Havaalanları :

Kano, Nijerya

Enlem: 12-03N, Boylam: 008-32E, yükseklik: 476 m

Güncel hava durumu gözlemi

Rapor saat 22:00 UTC de 46 dakika önce yapıldı.
Rüzgar batı/kuzeybatıdan 3 kt
Sıcaklık 27°C
Nem 26%
Basınç 1012 hPa
Görüş mesafesi 10 km veya daha fazla
1500 m altında bulut yok ve kümülonimbus yok

METAR: DNKN 192200Z 29003KT CAVOK 27/06 Q1012 NOSIG

Saat: 23:46 (22:46 UTC)

Tahmin

Rapor saat 15:40 UTC de 7 saat ve 6 dakika önce yapıldı.
Ayın 19'si saat 18 UTC'den ayın 20'si saat 24 UTC'ye kadar geçerli Tahmin
Rüzgar doğudan 8 kt
Görüş mesafesi 10 km veya daha fazla
1500 m altında bulut yok ve kümülonimbus yok

TAF: DNKN 191540Z 1918/2024 08008KT CAVOK

4.000'den fazla havaalanı için hava durumu gözlemleri ve tahminleri (METAR ve TAF raporları).

Kullanılabilir istasyonlar harita üzerinde sarı ve kırmızı noktalarla gösterilir.

İstasyonun adını görmek için fareyi noktanın üzerinde gezdirin.

Sonrasında hava gözlem ve tahminlerini görmek için tıklayın.

Haritayı değiştirmek için: yaklaştırmak için siyah artı işaretli yeşil düğmeye ve uzaklaştırmak için de eksi işaretli düğmeye hızla tıklayın; bitişik haritalar için yeşil okları kullanın.


METAR-TAF: